Latest Weather Observations for Mount Boyce

IDN60901

Issued at 7:41 pm EST Thursday 16 August 2018 (issued every 10 minutes, with the page automatically refreshed every 10 minutes)

About weather observations | Map of Sydney area stations | Latest observations for Sydney area | Other Formats
Station Details ID: 063292 Name: MOUNT BOYCE AWS Lat: -33.62 Lon: 150.27 Height: 1080.0 m
Data from the previous 72 hours. | See also: Recent months at Mount Boyce
Date/Time
EST
Temp
°C
App
Temp
°C
Dew
Point
°C
Rel
Hum
%
Delta-T
°C
Wind Press
QNH
hPa
Press
MSL
hPa
Rain since
9am
mm
Dir  Spd
km/h
Gust
km/h
Spd
kts
Gust
kts
16/07:30pm 4.6 -1.5 -2.5 60 2.7 WSW 20 32 11 17 - - 0.0
16/07:00pm 4.9 -1.2 -2.7 58 2.9 WSW 20 30 11 16 - - 0.0
16/06:30pm 5.3 -0.7 -1.8 60 2.8 WSW 20 30 11 16 - - 0.0
16/06:00pm 5.7 -0.2 -1.9 58 3.0 WSW 19 30 10 16 - - 0.0
16/05:30pm 6.5 0.5 -1.9 55 3.3 SW 20 32 11 17 - - 0.0
16/05:00pm 7.7 0.6 -1.5 52 3.7 WSW 26 39 14 21 - - 0.0
16/04:30pm 8.9 1.4 -1.5 48 4.3 WSW 28 39 15 21 - - 0.0
16/04:00pm 9.5 2.7 -2.1 44 4.7 WSW 24 37 13 20 - - 0.0
16/03:30pm 10.0 2.8 -1.7 44 4.8 WSW 26 39 14 21 - - 0.0
16/03:19pm 10.0 2.5 -1.7 44 4.8 SW 28 46 15 25 - - 0.0
16/03:00pm 9.9 1.9 -2.1 43 4.9 SW 30 44 16 24 - - 0.0
16/02:37pm 10.3 2.8 -1.7 43 5.0 WSW 28 46 15 25 - - 0.0
16/02:30pm 11.0 3.2 -1.1 43 5.1 WSW 30 44 16 24 - - 0.0
16/02:14pm 10.3 2.7 -2.0 42 5.1 WSW 28 46 15 25 - - 0.0
16/02:00pm 10.7 3.1 -2.0 41 5.3 WSW 28 44 15 24 - - 0.0
16/01:30pm 10.7 3.2 -1.7 42 5.2 WSW 28 41 15 22 - - 0.0
16/01:00pm 10.7 3.0 -2.7 39 5.5 WSW 28 46 15 25 - - 0.0
16/12:43pm 11.2 3.5 -3.3 36 5.9 WSW 28 46 15 25 - - 0.0
16/12:30pm 10.5 3.4 -1.2 44 4.9 WSW 26 43 14 23 - - 0.0
16/12:00pm 9.9 1.7 -0.9 47 4.5 WSW 32 50 17 27 - - 0.0
16/11:30am 10.3 2.1 0.3 50 4.3 WSW 33 52 18 28 - - 0.0
16/11:00am 9.6 -0.1 0.5 53 3.9 WSW 41 59 22 32 - - 0.0
16/10:30am 9.6 0.4 1.0 55 3.8 WSW 39 59 21 32 - - 0.0
16/10:00am 8.9 -0.4 0.4 55 3.7 WSW 39 63 21 34 - - 0.0
16/09:41am 8.7 0.1 0.2 55 3.6 WSW 35 54 19 29 - - 0.0
16/09:30am 8.4 -1.0 0.1 56 3.5 WSW 39 56 21 30 - - 0.0
16/09:00am 7.9 -0.7 0.2 58 3.3 WSW 35 61 19 33 - - 0.0
16/08:30am 7.2 -0.3 0.9 64 2.7 WSW 30 48 16 26 - - 0.0
16/08:01am 6.5 -0.7 0.6 66 2.5 WSW 28 50 15 27 - - 0.0
16/08:00am 6.4 -0.8 0.5 66 2.5 WSW 28 44 15 24 - - 0.0
16/07:40am 6.4 -1.8 0.1 64 2.6 WSW 33 52 18 28 - - 0.0
16/07:30am 6.5 -2.2 -0.2 62 2.8 WSW 35 50 19 27 - - 0.0
16/07:00am 6.9 -2.3 -1.5 55 3.4 WSW 37 57 20 31 - - 0.0
16/06:31am 7.4 -2.4 -3.2 47 4.1 WSW 39 59 21 32 - - 0.0
16/06:30am 7.4 -2.0 -3.2 47 4.1 WSW 37 54 20 29 - - 0.0
16/06:03am 7.9 -2.0 -3.6 44 4.4 WSW 39 59 21 32 - - 0.0
16/06:00am 7.8 -1.7 -4.0 43 4.5 WSW 37 52 20 28 - - 0.0
16/05:30am 8.7 -1.2 -4.1 40 4.9 WSW 39 59 21 32 - - 0.0
16/05:01am 9.4 -0.2 -4.5 37 5.4 WSW 37 56 20 30 - - 0.0
16/05:00am 9.6 -0.4 -4.4 37 5.4 WSW 39 56 21 30 - - 0.0
16/04:30am 9.6 0.0 -4.7 36 5.5 WSW 37 57 20 31 - - 0.0
16/04:00am 10.1 0.1 -4.6 35 5.7 WSW 39 59 21 32 - - 0.0
16/03:30am 10.2 0.5 -5.3 33 5.9 WSW 37 61 20 33 - - 0.0
16/03:00am 10.4 1.5 -5.2 33 6.0 WSW 33 59 18 32 - - 0.0
16/02:30am 10.4 1.7 -5.2 33 6.0 WSW 32 52 17 28 - - 0.0
16/02:00am 10.4 0.7 -5.2 33 6.0 WSW 37 59 20 32 - - 0.0
16/01:30am 10.6 0.5 -5.4 32 6.1 WSW 39 61 21 33 - - 0.0
16/01:00am 10.8 0.0 -5.2 32 6.2 WSW 43 67 23 36 - - 0.0
16/12:30am 10.8 0.3 -5.6 31 6.3 W 41 72 22 39 - - 0.0
16/12:00am 10.7 0.6 -5.7 31 6.2 W 39 63 21 34 - - 0.0
 
Date/Time
EST
Temp
°C
App
Temp
°C
Dew
Point
°C
Rel
Hum
%
Delta-T
°C
Wind Press
QNH
hPa
Press
MSL
hPa
Rain since
9am
mm
Dir  Spd
km/h
Gust
km/h
Spd
kts
Gust
kts
15/11:30pm 10.7 0.2 -5.7 31 6.2 W 41 74 22 40 - - 0.0
15/11:00pm 10.5 1.2 -5.5 32 6.1 W 35 63 19 34 - - 0.0
15/10:30pm 10.3 0.2 -5.6 32 6.0 W 39 65 21 35 - - 0.0
15/10:00pm 10.3 1.6 -5.6 32 6.0 W 32 54 17 29 - - 0.0
15/09:30pm 10.4 1.5 -5.6 32 6.1 W 33 52 18 28 - - 0.0
15/09:00pm 10.7 1.0 -5.7 31 6.2 W 37 70 20 38 - - 0.0
15/08:30pm 10.8 1.5 -5.6 31 6.3 W 35 59 19 32 - - 0.0
15/08:00pm 10.7 1.9 -5.7 31 6.2 W 32 56 17 30 - - 0.0
15/07:30pm 10.5 2.2 -4.7 34 5.9 W 30 48 16 26 - - 0.0
15/07:00pm 10.7 2.1 -4.5 34 5.9 W 32 54 17 29 - - 0.0
15/06:30pm 10.6 2.8 -4.2 35 5.8 W 28 48 15 26 - - 0.0
15/06:00pm 11.0 2.4 -4.2 34 6.0 W 32 50 17 27 - - 0.0
15/05:30pm 11.3 2.5 -4.0 34 6.1 W 33 54 18 29 - - 0.0
15/05:00pm 11.9 3.7 -4.2 32 6.4 W 30 48 16 26 - - 0.0
15/04:30pm 13.0 4.2 -4.1 30 6.9 W 33 52 18 28 - - 0.0
15/04:00pm 13.6 4.9 -5.0 27 7.4 W 32 52 17 28 - - 0.0
15/03:30pm 13.9 5.3 -4.3 28 7.4 W 32 61 17 33 - - 0.0
15/03:00pm 14.4 6.5 -4.8 26 7.7 W 28 48 15 26 - - 0.0
15/02:30pm 14.6 6.7 -5.2 25 7.9 W 28 46 15 25 - - 0.0
15/02:13pm 14.3 6.3 -5.4 25 7.8 W 28 61 15 33 - - 0.0
15/02:00pm 14.2 5.9 -4.5 27 7.6 W 30 44 16 24 - - 0.0
15/01:31pm 13.7 4.8 -4.9 27 7.4 WSW 33 52 18 28 - - 0.0
15/01:30pm 13.7 4.5 -4.5 28 7.3 W 35 52 19 28 - - 0.0
15/01:00pm 13.0 4.9 -2.9 33 6.6 W 30 54 16 29 - - 0.0
15/12:30pm 11.8 2.7 -0.7 42 5.4 WSW 37 59 20 32 - - 0.0
15/12:00pm 10.7 0.8 -0.7 45 4.9 WSW 41 59 22 32 - - 0.0
15/11:30am 9.9 -0.3 -0.6 48 4.5 WSW 43 65 23 35 - - 0.0
15/11:02am 9.1 -1.8 -1.0 49 4.2 WSW 46 65 25 35 - - 0.0
15/11:00am 9.2 -1.6 -0.7 50 4.2 WSW 46 63 25 34 - - 0.0
15/10:30am 8.9 -2.0 -1.5 48 4.3 WSW 46 72 25 39 - - 0.0
15/10:00am 8.6 -2.1 -2.3 46 4.4 WSW 44 67 24 36 - - 0.0
15/09:30am 7.8 -2.8 -2.0 50 3.9 WSW 44 65 24 35 - - 0.0
15/09:00am 7.4 -3.2 -1.8 52 3.7 WSW 44 65 24 35 - - 0.0
15/08:38am 6.6 -2.1 -0.8 59 3.0 WSW 35 57 19 31 - - 0.0
15/08:30am 6.3 -2.8 -0.7 61 2.9 WSW 37 52 20 28 - - 0.0
15/08:00am 5.7 -3.1 -1.0 62 2.7 WSW 35 57 19 31 - - 0.0
15/07:30am 5.2 -4.0 -1.3 63 2.6 WSW 37 56 20 30 - - 0.0
15/07:00am 5.4 -3.8 -1.3 62 2.7 WSW 37 52 20 28 - - 0.0
15/06:43am 5.4 -2.8 -1.1 63 2.6 WSW 32 50 17 27 - - 0.0
15/06:30am 5.4 -2.4 -0.8 64 2.5 WSW 30 43 16 23 - - 0.0
15/06:04am 5.2 -2.9 -0.4 67 2.3 WSW 32 50 17 27 - - 0.0
15/06:00am 5.1 -3.0 -0.1 69 2.1 WSW 32 46 17 25 - - 0.0
15/05:30am 4.4 -2.5 0.4 75 1.6 WSW 26 39 14 21 - - 0.0
15/05:00am 4.5 -2.3 0.6 76 1.6 WSW 26 43 14 23 - - 0.0
15/04:30am 4.4 -2.5 0.4 75 1.6 WSW 26 37 14 20 - - 0.0
15/04:00am 5.1 -3.1 0.1 70 2.1 WSW 33 52 18 28 - - 0.0
15/03:30am 5.2 -2.5 0.2 70 2.1 WSW 30 48 16 26 - - 0.0
15/03:24am 5.0 -2.3 0.0 70 2.0 WSW 28 48 15 26 - - 0.0
15/03:00am 5.0 -1.9 0.0 70 2.0 WSW 26 44 14 24 - - 0.0
15/02:30am 4.9 -1.2 0.1 71 2.0 WSW 22 35 12 19 - - 0.0
15/02:00am 5.5 -2.1 0.3 69 2.2 WSW 30 48 16 26 - - 0.0
15/01:54am 5.6 -1.6 0.4 69 2.2 WSW 28 48 15 26 - - 0.0
15/01:30am 5.4 -1.0 1.0 73 1.9 WSW 24 35 13 19 - - 0.0
15/01:00am 5.9 -0.9 0.7 69 2.2 WSW 26 39 14 21 - - 0.0
15/12:30am 5.8 -1.8 0.8 70 2.1 WSW 30 43 16 23 - - 0.0
15/12:00am 6.0 -1.9 0.8 69 2.2 WSW 32 43 17 23 - - 0.0
 
Date/Time
EST
Temp
°C
App
Temp
°C
Dew
Point
°C
Rel
Hum
%
Delta-T
°C
Wind Press
QNH
hPa
Press
MSL
hPa
Rain since
9am
mm
Dir  Spd
km/h
Gust
km/h
Spd
kts
Gust
kts
14/11:30pm 5.5 -0.5 1.2 74 1.8 W 22 32 12 17 - - 0.0
14/11:00pm 5.2 0.2 1.5 77 1.6 WSW 17 22 9 12 - - 0.0
14/10:30pm 5.9 0.9 1.6 74 1.8 WSW 17 26 9 14 - - 0.0
14/10:00pm 6.3 1.0 2.0 74 1.9 SW 19 26 10 14 - - 0.0
14/09:30pm 6.7 0.8 1.8 71 2.1 W 22 30 12 16 - - 0.0
14/09:00pm 7.0 0.6 0.7 64 2.7 W 24 35 13 19 - - 0.0
14/08:30pm 6.7 1.6 1.0 67 2.4 WSW 17 28 9 15 - - 0.0
14/08:00pm 6.7 2.1 1.6 70 2.2 WSW 15 20 8 11 - - 0.0
14/07:30pm 7.2 2.6 1.7 68 2.4 WSW 15 20 8 11 - - 0.0
14/07:00pm 7.7 3.6 2.0 67 2.5 WSW 13 17 7 9 - - 0.0
14/06:30pm 8.7 3.9 2.5 65 2.8 WSW 17 26 9 14 - - 0.0
14/06:00pm 9.9 4.7 2.3 59 3.4 WSW 19 30 10 16 - - 0.0
14/05:30pm 10.7 5.3 2.3 56 3.8 W 20 32 11 17 - - 0.0
14/05:00pm 11.9 7.0 2.1 51 4.5 WSW 17 30 9 16 - - 0.0
14/04:30pm 12.9 6.7 2.2 48 5.0 W 24 35 13 19 - - 0.0
14/04:00pm 14.1 8.3 2.4 45 5.5 W 22 32 12 17 - - 0.0
14/03:30pm 15.1 9.8 1.6 40 6.3 WSW 19 30 10 16 - - 0.0
14/03:00pm 16.4 12.1 0.9 35 7.2 WSW 13 22 7 12 - - 0.0
14/02:30pm 16.2 12.3 1.1 36 7.0 WNW 11 22 6 12 - - 0.0
14/02:00pm 15.6 11.0 1.4 38 6.6 W 15 20 8 11 - - 0.0
14/01:30pm 15.0 10.0 1.5 40 6.3 W 17 22 9 12 - - 0.0
14/01:00pm 14.0 8.6 1.0 41 5.9 W 19 24 10 13 - - 0.0
14/12:30pm 13.4 8.5 2.3 47 5.2 W 17 24 9 13 - - 0.0
14/12:00pm 12.2 6.9 1.8 49 4.7 WSW 19 26 10 14 - - 0.0
14/11:30am 11.6 6.3 2.1 52 4.3 WSW 19 26 10 14 - - 0.0
14/11:00am 9.9 4.5 1.3 55 3.8 W 19 24 10 13 - - 0.0
14/10:30am 8.8 3.2 1.5 60 3.2 W 20 26 11 14 - - 0.0
14/10:00am 7.5 1.8 0.5 61 3.0 WSW 20 26 11 14 - - 0.0
14/09:30am 6.3 1.1 0.4 66 2.5 WSW 17 26 9 14 - - 0.0
14/09:00am 4.9 -0.3 -0.1 70 2.0 W 17 22 9 12 - - 0.0
14/08:30am 3.5 -1.7 -0.1 77 1.4 WSW 17 20 9 11 - - 0.0
14/08:00am 2.5 -3.3 -0.4 81 1.1 W 20 24 11 13 - - 0.0
14/07:30am 1.8 -3.5 -0.6 84 0.9 WSW 17 20 9 11 - - 0.0
14/07:00am 1.8 -3.9 -0.4 85 0.9 W 19 24 10 13 - - 0.0
14/06:30am 1.7 -4.0 -0.4 86 0.8 WSW 19 24 10 13 - - 0.0
14/06:00am 1.8 -4.8 -0.3 86 0.8 W 24 32 13 17 - - 0.0
14/05:30am 1.7 -4.9 -0.1 88 0.7 WSW 24 33 13 18 - - 0.0
14/05:00am 1.6 -4.2 -0.2 88 0.7 WSW 20 30 11 16 - - 0.0
14/04:30am 2.1 -3.2 -0.3 84 0.9 WSW 17 26 9 14 - - 0.0
14/04:00am 2.2 -4.4 -0.2 84 0.9 W 24 35 13 19 - - 0.0
14/03:30am 1.9 -4.3 -0.3 85 0.9 WSW 22 32 12 17 - - 0.0
14/03:00am 2.2 -4.7 -0.1 85 0.9 WSW 26 33 14 18 - - 0.0
14/02:30am 2.3 -3.8 0.2 86 0.8 WSW 22 32 12 17 - - 0.0
14/02:00am 2.2 -4.0 -0.1 85 0.9 WSW 22 32 12 17 - - 0.0
14/01:30am 2.5 -4.8 0.2 85 0.9 WSW 28 37 15 20 - - 0.0
14/01:00am 2.5 -4.4 0.2 85 0.9 WSW 26 35 14 19 - - 0.0
14/12:30am 2.7 -4.2 0.3 84 1.0 WSW 26 35 14 19 - - 0.0
14/12:00am 2.7 -3.0 0.3 84 1.0 WSW 20 28 11 15 - - 0.0
 
Date/Time
EST
Temp
°C
App
Temp
°C
Dew
Point
°C
Rel
Hum
%
Delta-T
°C
Wind Press
QNH
hPa
Press
MSL
hPa
Rain since
9am
mm
Dir  Spd
km/h
Gust
km/h
Spd
kts
Gust
kts
13/11:30pm 2.9 -3.6 0.5 84 1.0 WSW 24 33 13 18 - - 0.0
13/11:00pm 3.2 -4.4 0.6 83 1.1 WSW 30 39 16 21 - - 0.0
13/10:30pm 3.3 -3.9 0.7 83 1.1 WSW 28 39 15 21 - - 0.0
13/10:00pm 3.6 -4.0 0.7 81 1.2 WSW 30 44 16 24 - - 0.0
13/09:30pm 3.5 -4.1 0.7 82 1.1 WSW 30 39 16 21 - - 0.0
13/09:00pm 3.7 -3.9 0.8 81 1.2 WSW 30 41 16 22 - - 0.0
13/08:30pm 3.7 -4.2 0.8 81 1.2 WSW 32 44 17 24 - - 0.0
13/08:00pm 3.8 -5.1 0.7 80 1.3 WSW 37 46 20 25 - - 0.0

Latest Capital City Observations: Canberra | Sydney | Melbourne | Brisbane | Adelaide | Perth | Hobart | Darwin

Other Formats:

Comma delimited format used in spreadsheet applications
http://www.bom.gov.au/fwo/IDN60901/IDN60901.94743.axf

JavaScript Object Notation format (JSON) in row-major order
http://www.bom.gov.au/fwo/IDN60901/IDN60901.94743.json